81FL weather

CLOSED Cox's Hammock Airport
Indiantown, Florida, United States

Public forecast

Using degrees Fahrenheit for public forecast. Weather courtesy of forecast.io.

Closest aviation weather report (METAR) to Cox's Hammock Airport

Closest report is Witham Field, 17.3 nm (32.0 km) ENE. Retrieved 2019/10/17 09:35 UTC (11 minutes ago):

KSUA 170935Z AUTO 29004KT 10SM SCT012 25/22 A2989 RMK AO2

Closest aviation forecast (TAF) to Cox's Hammock Airport

Closest forecast is Witham Field, 17.3 nm (32.0 km) ENE. Retrieved 2019/10/17 06:22 UTC (3 hours ago):

TAF KSUA 170520Z 1706/1806 26006KT P6SM SCT040 BKN250 FM170800 27006KT P6SM SCT035 BKN200 FM171200 32007KT P6SM SCT030 BKN250 FM171900 05008KT P6SM SCT035 BKN100 FM180000 03006KT P6SM VCSH SCT030 BKN200